PORTS® Data Listing: 8519483 Bergen Point West Reach, NY

CO-OPS RAW PORTS DATA

************************      PRELIMINARY DATA      ************************** 

     THIS RAW DATA HAS NOT BEEN SUBJECT TO THE NATIONAL OCEAN SERVICE'S        
     QUALITY CONTROL OR QUALITY ASSURANCE PROCEDURES AND DOES NOT MEET         
     THE CRITERIA AND STANDARDS OF OFFICIAL NATIONAL OCEAN SERVICE             
     DATA.  IT IS RELEASED FOR LIMITED PUBLIC USE AS PRELIMINARY DATA TO       
     BE USED ONLY WITH APPROPRIATE CAUTION.                                    

************************      PRELIMINARY DATA      ************************** 


       CD   -   Calendar date
       T    -   Time
       TZ   -   Timezone
       PW   -   Predicted water level (feet above MLLW)
       OW   -   Observed water level (feet above MLLW)
       WS   -   Wind speed (knots)
       WD   -   Wind direction (degrees true)
       WG   -   Wind gust (knots)
       AT   -   Air temperature (degrees farenheit)
       WT   -   Water temperature (degrees farenheit)
       AP   -   Air pressure (millibars)
       SA   -   Salinty (PSU - Practical Salinity Units)
       SG   -   Specific gravity
       RH   -   Relative humidity
       AG   -   Air gap (feet)
       VI   -   Visibility (nautical miles)

       ** NOTE **
       A variable that has its data fields filled with "9"s, indicates that
       data was not collected for that sample period.
       **********


STATION NAME: Bergen Point West Reach (8519483)
****************************************************************************************************
    CD       T    TZ    PW     OW    WS   WD   WG    AT    WT    AP    SA    SG     RH    AG   VI
****************************************************************************************************
2019/12/06 21:06 EST    0.89   0.62 -999 -999 -999  44.2  45.3 1018.7 -9.9 -9.999 -99.9 -99.99 -9.99
2019/12/06 21:12 EST    0.84   0.53 -999 -999 -999  44.1  45.3 1018.8 -9.9 -9.999 -99.9 -99.99 -9.99
2019/12/06 21:18 EST    0.79   0.45 -999 -999 -999  43.9  45.3 1018.9 -9.9 -9.999 -99.9 -99.99 -9.99
2019/12/06 21:24 EST    0.75   0.39 -999 -999 -999  43.7  45.3 1018.9 -9.9 -9.999 -99.9 -99.99 -9.99
2019/12/06 21:30 EST    0.70   0.29 -999 -999 -999  43.7  45.1 1019.0 -9.9 -9.999 -99.9 -99.99 -9.99
2019/12/06 21:36 EST    0.66   0.22 -999 -999 -999  43.5  45.1 1019.2 -9.9 -9.999 -99.9 -99.99 -9.99
2019/12/06 21:42 EST    0.63   0.13 -999 -999 -999  43.3  45.1 1019.3 -9.9 -9.999 -99.9 -99.99 -9.99
2019/12/06 21:48 EST    0.60   0.08 -999 -999 -999  43.2  45.1 1019.4 -9.9 -9.999 -99.9 -99.99 -9.99
2019/12/06 21:54 EST    0.57   0.05 -999 -999 -999  43.0  45.0 1019.5 -9.9 -9.999 -99.9 -99.99 -9.99
2019/12/06 22:00 EST    0.55   0.02 -999 -999 -999  42.8  45.0 1019.6 -9.9 -9.999 -99.9 -99.99 -9.99
2019/12/06 22:06 EST    0.53  -0.05 -999 -999 -999  42.4  44.8 1019.8 -9.9 -9.999 -99.9 -99.99 -9.99
2019/12/06 22:12 EST    0.52  -0.05 -999 -999 -999  42.3  44.8 1020.0 -9.9 -9.999 -99.9 -99.99 -9.99
2019/12/06 22:18 EST    0.51  -0.07 -999 -999 -999  41.9  44.8 1020.1 -9.9 -9.999 -99.9 -99.99 -9.99
2019/12/06 22:24 EST    0.51  -0.08 -999 -999 -999  41.7  44.6 1020.2 -9.9 -9.999 -99.9 -99.99 -9.99
2019/12/06 22:30 EST    0.51  -0.12 -999 -999 -999  41.5  44.6 1020.3 -9.9 -9.999 -99.9 -99.99 -9.99
2019/12/06 22:36 EST    0.52  -0.12 -999 -999 -999  41.2  44.6 1020.4 -9.9 -9.999 -99.9 -99.99 -9.99
2019/12/06 22:42 EST    0.54  -0.14 -999 -999 -999  41.0  44.4 1020.6 -9.9 -9.999 -99.9 -99.99 -9.99
2019/12/06 22:48 EST    0.57  -0.11 -999 -999 -999  40.6  44.2 1020.7 -9.9 -9.999 -99.9 -99.99 -9.99
2019/12/06 22:54 EST    0.60  -0.10 -999 -999 -999  40.6  44.2 1020.7 -9.9 -9.999 -99.9 -99.99 -9.99
2019/12/06 23:00 EST    0.64  -0.08 -999 -999 -999  40.6  44.2 1020.8 -9.9 -9.999 -99.9 -99.99 -9.99
2019/12/06 23:06 EST    0.69  -0.03 -999 -999 -999  40.3  44.2 1020.8 -9.9 -9.999 -99.9 -99.99 -9.99
2019/12/06 23:12 EST    0.74   0.02 -999 -999 -999  40.1  44.2 1020.9 -9.9 -9.999 -99.9 -99.99 -9.99
2019/12/06 23:18 EST    0.80   0.09 -999 -999 -999  39.9  44.1 1020.9 -9.9 -9.999 -99.9 -99.99 -9.99
2019/12/06 23:24 EST    0.87   0.13 -999 -999 -999  39.9  44.1 1021.0 -9.9 -9.999 -99.9 -99.99 -9.99
2019/12/06 23:30 EST    0.94   0.16 -999 -999 -999  39.9  44.1 1021.1 -9.9 -9.999 -99.9 -99.99 -9.99
2019/12/06 23:36 EST    1.02   0.24 -999 -999 -999  39.7  43.9 1021.1 -9.9 -9.999 -99.9 -99.99 -9.99
2019/12/06 23:42 EST    1.10   0.31 -999 -999 -999  39.4  43.9 1021.2 -9.9 -9.999 -99.9 -99.99 -9.99
2019/12/06 23:48 EST    1.19   0.43 -999 -999 -999  39.2  43.9 1021.3 -9.9 -9.999 -99.9 -99.99 -9.99
2019/12/06 23:54 EST    1.29   0.52 -999 -999 -999  39.2  43.9 1021.4 -9.9 -9.999 -99.9 -99.99 -9.99
2019/12/07 00:00 EST    1.39   0.63 -999 -999 -999  39.0  43.9 1021.4 -9.9 -9.999 -99.9 -99.99 -9.99
2019/12/07 00:06 EST    1.50   0.77 -999 -999 -999  38.8  43.7 1021.4 -9.9 -9.999 -99.9 -99.99 -9.99
2019/12/07 00:12 EST    1.60   0.88 -999 -999 -999  38.8  43.7 1021.4 -9.9 -9.999 -99.9 -99.99 -9.99
2019/12/07 00:18 EST    1.71   1.02 -999 -999 -999  38.8  43.5 1021.4 -9.9 -9.999 -99.9 -99.99 -9.99
2019/12/07 00:24 EST    1.83   1.17 -999 -999 -999  38.7  43.5 1021.5 -9.9 -9.999 -99.9 -99.99 -9.99
2019/12/07 00:30 EST    1.94   1.29 -999 -999 -999  38.7  43.5 1021.7 -9.9 -9.999 -99.9 -99.99 -9.99
2019/12/07 00:36 EST    2.06   1.44 -999 -999 -999  38.7  43.5 1021.8 -9.9 -9.999 -99.9 -99.99 -9.99
2019/12/07 00:42 EST    2.18   1.59 -999 -999 -999  38.3  43.5 1021.9 -9.9 -9.999 -99.9 -99.99 -9.99
2019/12/07 00:48 EST    2.29   1.73 -999 -999 -999  38.5  43.5 1022.0 -9.9 -9.999 -99.9 -99.99 -9.99
2019/12/07 00:54 EST    2.41   1.85 -999 -999 -999  38.3  43.7 1022.1 -9.9 -9.999 -99.9 -99.99 -9.99
2019/12/07 01:00 EST    2.53   2.00 -999 -999 -999  38.1  43.5 1022.2 -9.9 -9.999 -99.9 -99.99 -9.99
2019/12/07 01:06 EST    2.64   2.12 -999 -999 -999  37.9  43.5 1022.3 -9.9 -9.999 -99.9 -99.99 -9.99
2019/12/07 01:12 EST    2.75   2.22 -999 -999 -999  38.1  43.5 1022.4 -9.9 -9.999 -99.9 -99.99 -9.99
2019/12/07 01:18 EST    2.86   2.35 -999 -999 -999  37.8  43.5 1022.5 -9.9 -9.999 -99.9 -99.99 -9.99
2019/12/07 01:24 EST    2.97   2.48 -999 -999 -999  37.8  43.5 1022.5 -9.9 -9.999 -99.9 -99.99 -9.99
2019/12/07 01:30 EST    3.08   2.60 -999 -999 -999  37.8  43.5 1022.6 -9.9 -9.999 -99.9 -99.99 -9.99
2019/12/07 01:36 EST    3.18   2.72 -999 -999 -999  37.6  43.5 1022.7 -9.9 -9.999 -99.9 -99.99 -9.99
2019/12/07 01:42 EST    3.28   2.83 -999 -999 -999  37.6  43.7 1022.8 -9.9 -9.999 -99.9 -99.99 -9.99
2019/12/07 01:48 EST    3.37   2.93 -999 -999 -999  37.4  43.9 1022.9 -9.9 -9.999 -99.9 -99.99 -9.99
2019/12/07 01:54 EST    3.47   3.03 -999 -999 -999  37.2  43.9 1023.0 -9.9 -9.999 -99.9 -99.99 -9.99
2019/12/07 02:00 EST    3.55   3.12 -999 -999 -999  37.0  44.1 1023.0 -9.9 -9.999 -99.9 -99.99 -9.99
2019/12/07 02:06 EST    3.64   3.23 -999 -999 -999  36.9  44.2 1023.1 -9.9 -9.999 -99.9 -99.99 -9.99
2019/12/07 02:12 EST    3.72   3.30 -999 -999 -999  36.7  44.2 1023.2 -9.9 -9.999 -99.9 -99.99 -9.99
2019/12/07 02:18 EST    3.80   3.36 -999 -999 -999  36.9  44.2 1023.3 -9.9 -9.999 -99.9 -99.99 -9.99
2019/12/07 02:24 EST    3.87   3.44 -999 -999 -999  36.9  44.2 1023.4 -9.9 -9.999 -99.9 -99.99 -9.99
2019/12/07 02:30 EST    3.94   3.51 -999 -999 -999  36.7  44.4 1023.4 -9.9 -9.999 -99.9 -99.99 -9.99
2019/12/07 02:36 EST    4.01   3.61 -999 -999 -999  36.5  44.4 1023.6 -9.9 -9.999 -99.9 -99.99 -9.99
2019/12/07 02:42 EST    4.07   3.67 -999 -999 -999  36.7  44.6 1023.7 -9.9 -9.999 -99.9 -99.99 -9.99
2019/12/07 02:48 EST    4.13   3.73 -999 -999 -999  36.5  44.6 1023.8 -9.9 -9.999 -99.9 -99.99 -9.99
2019/12/07 02:54 EST    4.19   3.79 -999 -999 -999  36.3  44.6 1023.9 -9.9 -9.999 -99.9 -99.99 -9.99
2019/12/07 03:00 EST    4.24   3.85 -999 -999 -999  36.0  44.6 1024.0 -9.9 -9.999 -99.9 -99.99 -9.99
2019/12/07 03:06 EST    4.29   3.89 -999 -999 -999  36.1  44.6 1024.0 -9.9 -9.999 -99.9 -99.99 -9.99
2019/12/07 03:12 EST    4.34   3.95 -999 -999 -999  36.0  44.6 1024.1 -9.9 -9.999 -99.9 -99.99 -9.99
2019/12/07 03:18 EST    4.38   3.99 -999 -999 -999  36.1  44.8 1024.2 -9.9 -9.999 -99.9 -99.99 -9.99
2019/12/07 03:24 EST    4.42   4.06 -999 -999 -999  36.0  44.8 1024.3 -9.9 -9.999 -99.9 -99.99 -9.99
2019/12/07 03:30 EST    4.46   4.09 -999 -999 -999  36.1  44.8 1024.3 -9.9 -9.999 -99.9 -99.99 -9.99
2019/12/07 03:36 EST    4.49   4.10 -999 -999 -999  36.0  44.8 1024.4 -9.9 -9.999 -99.9 -99.99 -9.99
2019/12/07 03:42 EST    4.52   4.13 -999 -999 -999  35.8  44.8 1024.4 -9.9 -9.999 -99.9 -99.99 -9.99
2019/12/07 03:48 EST    4.55   4.17 -999 -999 -999  35.8  44.6 1024.5 -9.9 -9.999 -99.9 -99.99 -9.99
2019/12/07 03:54 EST    4.57   4.18 -999 -999 -999  35.8  44.6 1024.6 -9.9 -9.999 -99.9 -99.99 -9.99
2019/12/07 04:00 EST    4.59   4.17 -999 -999 -999  35.8  44.6 1024.6 -9.9 -9.999 -99.9 -99.99 -9.99
2019/12/07 04:06 EST    4.61   4.19 -999 -999 -999  35.6  44.6 1024.7 -9.9 -9.999 -99.9 -99.99 -9.99
2019/12/07 04:12 EST    4.62   4.18 -999 -999 -999  35.4  44.6 1024.7 -9.9 -9.999 -99.9 -99.99 -9.99
2019/12/07 04:18 EST    4.63   4.16 -999 -999 -999  35.4  44.6 1024.8 -9.9 -9.999 -99.9 -99.99 -9.99
2019/12/07 04:24 EST    4.63   4.18 -999 -999 -999  35.4  44.6 1024.8 -9.9 -9.999 -99.9 -99.99 -9.99
2019/12/07 04:30 EST    4.63   4.17 -999 -999 -999  35.2  44.6 1024.9 -9.9 -9.999 -99.9 -99.99 -9.99
2019/12/07 04:36 EST    4.63   4.16 -999 -999 -999  35.1  44.6 1025.1 -9.9 -9.999 -99.9 -99.99 -9.99
2019/12/07 04:42 EST    4.62   4.17 -999 -999 -999  35.1  44.8 1025.2 -9.9 -9.999 -99.9 -99.99 -9.99
2019/12/07 04:48 EST    4.60   4.18 -999 -999 -999  35.1  44.8 1025.3 -9.9 -9.999 -99.9 -99.99 -9.99
2019/12/07 04:54 EST    4.58   4.17 -999 -999 -999  34.9  44.8 1025.4 -9.9 -9.999 -99.9 -99.99 -9.99
2019/12/07 05:00 EST    4.56   4.16 -999 -999 -999  34.9  44.8 1025.5 -9.9 -9.999 -99.9 -99.99 -9.99
2019/12/07 05:06 EST    4.53   4.14 -999 -999 -999  34.9  44.8 1025.6 -9.9 -9.999 -99.9 -99.99 -9.99
2019/12/07 05:12 EST    4.49   4.14 -999 -999 -999  34.9  44.8 1025.7 -9.9 -9.999 -99.9 -99.99 -9.99
2019/12/07 05:18 EST    4.45   4.11 -999 -999 -999  34.9  44.8 1025.8 -9.9 -9.999 -99.9 -99.99 -9.99
2019/12/07 05:24 EST    4.41   4.09 -999 -999 -999  34.7  44.8 1025.8 -9.9 -9.999 -99.9 -99.99 -9.99
2019/12/07 05:30 EST    4.36   4.09 -999 -999 -999  34.5  44.6 1025.9 -9.9 -9.999 -99.9 -99.99 -9.99
2019/12/07 05:36 EST    4.31   4.07 -999 -999 -999  34.5  44.6 1026.0 -9.9 -9.999 -99.9 -99.99 -9.99
2019/12/07 05:42 EST    4.25   4.03 -999 -999 -999  34.3  44.6 1026.2 -9.9 -9.999 -99.9 -99.99 -9.99
2019/12/07 05:48 EST    4.18   3.97 -999 -999 -999  34.3  44.6 1026.3 -9.9 -9.999 -99.9 -99.99 -9.99
2019/12/07 05:54 EST    4.12   3.92 -999 -999 -999  34.2  44.4 1026.5 -9.9 -9.999 -99.9 -99.99 -9.99
2019/12/07 06:00 EST    4.05   3.86 -999 -999 -999  34.2  44.4 1026.6 -9.9 -9.999 -99.9 -99.99 -9.99
2019/12/07 06:06 EST    3.98   3.80 -999 -999 -999  34.0  44.2 1026.7 -9.9 -9.999 -99.9 -99.99 -9.99
2019/12/07 06:12 EST    3.90   3.72 -999 -999 -999  34.0  44.1 1026.7 -9.9 -9.999 -99.9 -99.99 -9.99
2019/12/07 06:18 EST    3.82   3.65 -999 -999 -999  34.0  44.1 1026.8 -9.9 -9.999 -99.9 -99.99 -9.99
2019/12/07 06:24 EST    3.74   3.55 -999 -999 -999  34.0  44.1 1027.0 -9.9 -9.999 -99.9 -99.99 -9.99
2019/12/07 06:30 EST    3.66   3.48 -999 -999 -999  34.2  43.9 1027.1 -9.9 -9.999 -99.9 -99.99 -9.99
2019/12/07 06:36 EST    3.57   3.37 -999 -999 -999  34.0  43.9 1027.2 -9.9 -9.999 -99.9 -99.99 -9.99
2019/12/07 06:42 EST    3.49   3.30 -999 -999 -999  33.8  43.9 1027.2 -9.9 -9.999 -99.9 -99.99 -9.99
2019/12/07 06:48 EST    3.40   3.20 -999 -999 -999  33.8  43.9 1027.2 -9.9 -9.999 -99.9 -99.99 -9.99
2019/12/07 06:54 EST    3.31   3.12 -999 -999 -999  33.6  43.9 1027.3 -9.9 -9.999 -99.9 -99.99 -9.99
2019/12/07 07:00 EST    3.22   3.03 -999 -999 -999  33.8  43.7 1027.4 -9.9 -9.999 -99.9 -99.99 -9.99
2019/12/07 07:06 EST    3.13   2.92 -999 -999 -999  33.8  43.7 1027.5 -9.9 -9.999 -99.9 -99.99 -9.99
2019/12/07 07:12 EST    3.05   2.84 -999 -999 -999  33.8  43.7 1027.6 -9.9 -9.999 -99.9 -99.99 -9.99
2019/12/07 07:18 EST    2.96   2.71 -999 -999 -999  33.8  43.5 1027.7 -9.9 -9.999 -99.9 -99.99 -9.99
2019/12/07 07:24 EST    2.87   2.64 -999 -999 -999  33.8  43.5 1027.7 -9.9 -9.999 -99.9 -99.99 -9.99
2019/12/07 07:30 EST    2.79   2.56 -999 -999 -999  33.8  43.5 1027.8 -9.9 -9.999 -99.9 -99.99 -9.99
2019/12/07 07:36 EST    2.70   2.47 -999 -999 -999  34.0  43.5 1027.8 -9.9 -9.999 -99.9 -99.99 -9.99
2019/12/07 07:42 EST    2.62   2.37 -999 -999 -999  34.2  43.5 1027.9 -9.9 -9.999 -99.9 -99.99 -9.99
2019/12/07 07:48 EST    2.54   2.28 -999 -999 -999  34.2  43.3 1027.9 -9.9 -9.999 -99.9 -99.99 -9.99
2019/12/07 07:54 EST    2.46   2.16 -999 -999 -999  34.2  43.3 1028.0 -9.9 -9.999 -99.9 -99.99 -9.99
2019/12/07 08:00 EST    2.38   2.08 -999 -999 -999  34.0  43.2 1028.1 -9.9 -9.999 -99.9 -99.99 -9.99
2019/12/07 08:06 EST    2.30   1.99 -999 -999 -999  34.0  43.2 1028.1 -9.9 -9.999 -99.9 -99.99 -9.99
2019/12/07 08:12 EST    2.22   1.88 -999 -999 -999  34.2  43.2 1028.1 -9.9 -9.999 -99.9 -99.99 -9.99
2019/12/07 08:18 EST    2.14   1.80 -999 -999 -999  34.5  43.2 1028.1 -9.9 -9.999 -99.9 -99.99 -9.99
2019/12/07 08:24 EST    2.07   1.70 -999 -999 -999  34.2  43.2 1028.2 -9.9 -9.999 -99.9 -99.99 -9.99
2019/12/07 08:30 EST    1.99   1.61 -999 -999 -999  34.5  43.0 1028.3 -9.9 -9.999 -99.9 -99.99 -9.99
2019/12/07 08:36 EST    1.92   1.53 -999 -999 -999  34.7  43.0 1028.3 -9.9 -9.999 -99.9 -99.99 -9.99
2019/12/07 08:42 EST    1.85   1.45 -999 -999 -999  34.5  42.8 1028.3 -9.9 -9.999 -99.9 -99.99 -9.99
2019/12/07 08:48 EST    1.78   1.37 -999 -999 -999  34.7  42.8 1028.5 -9.9 -9.999 -99.9 -99.99 -9.99
2019/12/07 08:54 EST    1.71   1.28 -999 -999 -999  34.5  42.8 1028.6 -9.9 -9.999 -99.9 -99.99 -9.99
2019/12/07 09:00 EST    1.64   1.21 -999 -999 -999  34.7  42.6 1028.6 -9.9 -9.999 -99.9 -99.99 -9.99
2019/12/07 09:06 EST    1.57   1.14 -999 -999 -999  34.7  42.6 1028.6 -9.9 -9.999 -99.9 -99.99 -9.99
2019/12/07 09:12 EST    1.51   1.06 -999 -999 -999  34.7  42.6 1028.6 -9.9 -9.999 -99.9 -99.99 -9.99
2019/12/07 09:18 EST    1.44   1.01 -999 -999 -999  34.5  42.6 1028.6 -9.9 -9.999 -99.9 -99.99 -9.99
2019/12/07 09:24 EST    1.38   0.95 -999 -999 -999  34.9  42.6 1028.7 -9.9 -9.999 -99.9 -99.99 -9.99
2019/12/07 09:30 EST    1.31   0.91 -999 -999 -999  34.9  42.6 1028.7 -9.9 -9.999 -99.9 -99.99 -9.99
2019/12/07 09:36 EST    1.25   0.87 -999 -999 -999  35.1  42.6 1028.8 -9.9 -9.999 -99.9 -99.99 -9.99
2019/12/07 09:42 EST    1.19   0.81 -999 -999 -999  35.4  42.6 1028.8 -9.9 -9.999 -99.9 -99.99 -9.99
2019/12/07 09:48 EST    1.14   0.77 -999 -999 -999  35.4  42.6 1028.9 -9.9 -9.999 -99.9 -99.99 -9.99
2019/12/07 09:54 EST    1.08   0.74 -999 -999 -999  35.2  42.6 1028.9 -9.9 -9.999 -99.9 -99.99 -9.99
2019/12/07 10:00 EST    1.03   0.70 -999 -999 -999  35.4  42.6 1029.0 -9.9 -9.999 -99.9 -99.99 -9.99
2019/12/07 10:06 EST    0.98   0.66 -999 -999 -999  35.4  42.6 1029.1 -9.9 -9.999 -99.9 -99.99 -9.99
2019/12/07 10:12 EST    0.94   0.61 -999 -999 -999  35.2  42.6 1029.1 -9.9 -9.999 -99.9 -99.99 -9.99
2019/12/07 10:18 EST    0.90   0.58 -999 -999 -999  35.6  42.6 1029.1 -9.9 -9.999 -99.9 -99.99 -9.99
2019/12/07 10:24 EST    0.86   0.57 -999 -999 -999  35.4  42.6 1029.0 -9.9 -9.999 -99.9 -99.99 -9.99
2019/12/07 10:30 EST    0.83   0.55 -999 -999 -999  35.6  42.6 1029.0 -9.9 -9.999 -99.9 -99.99 -9.99
2019/12/07 10:36 EST    0.80   0.52 -999 -999 -999  35.8  42.6 1028.9 -9.9 -9.999 -99.9 -99.99 -9.99
2019/12/07 10:42 EST    0.78   0.49 -999 -999 -999  36.0  42.6 1028.8 -9.9 -9.999 -99.9 -99.99 -9.99
2019/12/07 10:48 EST    0.77   0.49 -999 -999 -999  36.0  42.6 1028.8 -9.9 -9.999 -99.9 -99.99 -9.99
2019/12/07 10:54 EST    0.76   0.48 -999 -999 -999  36.0  42.6 1028.8 -9.9 -9.999 -99.9 -99.99 -9.99
2019/12/07 11:00 EST    0.75   0.49 -999 -999 -999  35.6  42.6 1028.7 -9.9 -9.999 -99.9 -99.99 -9.99
2019/12/07 11:06 EST    0.76   0.48 -999 -999 -999  36.3  42.8 1028.6 -9.9 -9.999 -99.9 -99.99 -9.99
2019/12/07 11:12 EST    0.77   0.48 -999 -999 -999  36.5  42.8 1028.5 -9.9 -9.999 -99.9 -99.99 -9.99
2019/12/07 11:18 EST    0.79   0.51 -999 -999 -999  36.1  42.8 1028.5 -9.9 -9.999 -99.9 -99.99 -9.99
2019/12/07 11:24 EST    0.81   0.53 -999 -999 -999  36.3  42.8 1028.5 -9.9 -9.999 -99.9 -99.99 -9.99
2019/12/07 11:30 EST    0.84   0.56 -999 -999 -999  36.9  42.8 1028.5 -9.9 -9.999 -99.9 -99.99 -9.99
2019/12/07 11:36 EST    0.88   0.59 -999 -999 -999  36.9  42.8 1028.5 -9.9 -9.999 -99.9 -99.99 -9.99
2019/12/07 11:42 EST    0.92   0.59 -999 -999 -999  37.2  42.8 1028.5 -9.9 -9.999 -99.9 -99.99 -9.99
2019/12/07 11:48 EST    0.98   0.67 -999 -999 -999  36.9  43.0 1028.4 -9.9 -9.999 -99.9 -99.99 -9.99
2019/12/07 11:54 EST    1.03   0.72 -999 -999 -999  36.9  43.0 1028.5 -9.9 -9.999 -99.9 -99.99 -9.99
2019/12/07 12:00 EST    1.10   0.76 -999 -999 -999  37.0  43.0 1028.4 -9.9 -9.999 -99.9 -99.99 -9.99
2019/12/07 12:06 EST    1.17   0.84 -999 -999 -999  37.2  43.0 1028.5 -9.9 -9.999 -99.9 -99.99 -9.99
2019/12/07 12:12 EST    1.25   0.92 -999 -999 -999  37.4  43.0 1028.5 -9.9 -9.999 -99.9 -99.99 -9.99
2019/12/07 12:18 EST    1.33   1.01 -999 -999 -999  37.0  43.0 1028.5 -9.9 -9.999 -99.9 -99.99 -9.99
2019/12/07 12:24 EST    1.41   1.10 -999 -999 -999  37.2  43.0 1028.4 -9.9 -9.999 -99.9 -99.99 -9.99
2019/12/07 12:30 EST    1.51   1.21 -999 -999 -999  37.0  43.0 1028.4 -9.9 -9.999 -99.9 -99.99 -9.99
2019/12/07 12:36 EST    1.60   1.31 -999 -999 -999  37.6  43.0 1028.4 -9.9 -9.999 -99.9 -99.99 -9.99
2019/12/07 12:42 EST    1.70   1.39 -999 -999 -999  37.8  43.0 1028.3 -9.9 -9.999 -99.9 -99.99 -9.99
2019/12/07 12:48 EST    1.80   1.55 -999 -999 -999  37.4  43.0 1028.2 -9.9 -9.999 -99.9 -99.99 -9.99
2019/12/07 12:54 EST    1.90   1.64 -999 -999 -999  37.8  43.0 1028.3 -9.9 -9.999 -99.9 -99.99 -9.99
2019/12/07 13:00 EST    2.00   1.78 -999 -999 -999  37.9  43.0 1028.2 -9.9 -9.999 -99.9 -99.99 -9.99
2019/12/07 13:06 EST    2.11   1.91 -999 -999 -999  37.8  43.0 1028.2 -9.9 -9.999 -99.9 -99.99 -9.99
2019/12/07 13:12 EST    2.22   2.03 -999 -999 -999  38.1  43.0 1028.2 -9.9 -9.999 -99.9 -99.99 -9.99
2019/12/07 13:18 EST    2.32   2.15 -999 -999 -999  37.6  43.0 1028.2 -9.9 -9.999 -99.9 -99.99 -9.99
2019/12/07 13:24 EST    2.43   2.30 -999 -999 -999  38.1  43.2 1028.2 -9.9 -9.999 -99.9 -99.99 -9.99
2019/12/07 13:30 EST    2.53   2.43 -999 -999 -999  38.7  43.2 1028.3 -9.9 -9.999 -99.9 -99.99 -9.99
2019/12/07 13:36 EST    2.63   2.56 -999 -999 -999  38.8  43.2 1028.3 -9.9 -9.999 -99.9 -99.99 -9.99
2019/12/07 13:42 EST    2.73   2.66 -999 -999 -999  38.7  43.2 1028.3 -9.9 -9.999 -99.9 -99.99 -9.99
2019/12/07 13:48 EST    2.83   2.78 -999 -999 -999  37.4  43.2 1028.3 -9.9 -9.999 -99.9 -99.99 -9.99
2019/12/07 13:54 EST    2.93   2.88 -999 -999 -999  38.7  43.3 1028.3 -9.9 -9.999 -99.9 -99.99 -9.99
2019/12/07 14:00 EST    3.02   2.99 -999 -999 -999  38.5  43.3 1028.3 -9.9 -9.999 -99.9 -99.99 -9.99
2019/12/07 14:06 EST    3.12   3.07 -999 -999 -999  38.5  43.3 1028.3 -9.9 -9.999 -99.9 -99.99 -9.99
2019/12/07 14:12 EST    3.20   3.17 -999 -999 -999  38.8  43.5 1028.4 -9.9 -9.999 -99.9 -99.99 -9.99
2019/12/07 14:18 EST    3.29   3.27 -999 -999 -999  38.8  43.5 1028.4 -9.9 -9.999 -99.9 -99.99 -9.99
2019/12/07 14:24 EST    3.37   3.35 -999 -999 -999  38.7  43.5 1028.5 -9.9 -9.999 -99.9 -99.99 -9.99
2019/12/07 14:30 EST    3.45   3.45 -999 -999 -999  38.8  43.7 1028.5 -9.9 -9.999 -99.9 -99.99 -9.99
2019/12/07 14:36 EST    3.52   3.55 -999 -999 -999  38.8  43.9 1028.4 -9.9 -9.999 -99.9 -99.99 -9.99
2019/12/07 14:42 EST    3.59   3.64 -999 -999 -999  39.0  43.9 1028.5 -9.9 -9.999 -99.9 -99.99 -9.99
2019/12/07 14:48 EST    3.66   3.71 -999 -999 -999  39.0  43.9 1028.5 -9.9 -9.999 -99.9 -99.99 -9.99
2019/12/07 14:54 EST    3.73   3.77 -999 -999 -999  39.0  43.9 1028.5 -9.9 -9.999 -99.9 -99.99 -9.99
2019/12/07 15:00 EST    3.79 -99.99 -999 -999 -999 -99.9 -99.9 -999.9 -9.9 -9.999 -99.9 -99.99 -9.99
2019/12/07 15:06 EST    3.85 -99.99 -999 -999 -999 -99.9 -99.9 -999.9 -9.9 -9.999 -99.9 -99.99 -9.99
2019/12/07 15:12 EST    3.90 -99.99 -999 -999 -999 -99.9 -99.9 -999.9 -9.9 -9.999 -99.9 -99.99 -9.99
2019/12/07 15:18 EST    3.95 -99.99 -999 -999 -999 -99.9 -99.9 -999.9 -9.9 -9.999 -99.9 -99.99 -9.99
2019/12/07 15:24 EST    4.00 -99.99 -999 -999 -999 -99.9 -99.9 -999.9 -9.9 -9.999 -99.9 -99.99 -9.99
2019/12/07 15:30 EST    4.05 -99.99 -999 -999 -999 -99.9 -99.9 -999.9 -9.9 -9.999 -99.9 -99.99 -9.99
2019/12/07 15:36 EST    4.09 -99.99 -999 -999 -999 -99.9 -99.9 -999.9 -9.9 -9.999 -99.9 -99.99 -9.99
2019/12/07 15:42 EST    4.13 -99.99 -999 -999 -999 -99.9 -99.9 -999.9 -9.9 -9.999 -99.9 -99.99 -9.99
2019/12/07 15:48 EST    4.17 -99.99 -999 -999 -999 -99.9 -99.9 -999.9 -9.9 -9.999 -99.9 -99.99 -9.99
2019/12/07 15:54 EST    4.20 -99.99 -999 -999 -999 -99.9 -99.9 -999.9 -9.9 -9.999 -99.9 -99.99 -9.99
2019/12/07 16:00 EST    4.24 -99.99 -999 -999 -999 -99.9 -99.9 -999.9 -9.9 -9.999 -99.9 -99.99 -9.99
2019/12/07 16:06 EST    4.26 -99.99 -999 -999 -999 -99.9 -99.9 -999.9 -9.9 -9.999 -99.9 -99.99 -9.99
2019/12/07 16:12 EST    4.29 -99.99 -999 -999 -999 -99.9 -99.9 -999.9 -9.9 -9.999 -99.9 -99.99 -9.99
2019/12/07 16:18 EST    4.31 -99.99 -999 -999 -999 -99.9 -99.9 -999.9 -9.9 -9.999 -99.9 -99.99 -9.99
2019/12/07 16:24 EST    4.33 -99.99 -999 -999 -999 -99.9 -99.9 -999.9 -9.9 -9.999 -99.9 -99.99 -9.99
2019/12/07 16:30 EST    4.34 -99.99 -999 -999 -999 -99.9 -99.9 -999.9 -9.9 -9.999 -99.9 -99.99 -9.99
2019/12/07 16:36 EST    4.35 -99.99 -999 -999 -999 -99.9 -99.9 -999.9 -9.9 -9.999 -99.9 -99.99 -9.99
2019/12/07 16:42 EST    4.35 -99.99 -999 -999 -999 -99.9 -99.9 -999.9 -9.9 -9.999 -99.9 -99.99 -9.99
2019/12/07 16:48 EST    4.35 -99.99 -999 -999 -999 -99.9 -99.9 -999.9 -9.9 -9.999 -99.9 -99.99 -9.99
2019/12/07 16:54 EST    4.35 -99.99 -999 -999 -999 -99.9 -99.9 -999.9 -9.9 -9.999 -99.9 -99.99 -9.99
2019/12/07 17:00 EST    4.34 -99.99 -999 -999 -999 -99.9 -99.9 -999.9 -9.9 -9.999 -99.9 -99.99 -9.99
2019/12/07 17:06 EST    4.33 -99.99 -999 -999 -999 -99.9 -99.9 -999.9 -9.9 -9.999 -99.9 -99.99 -9.99
2019/12/07 17:12 EST    4.31 -99.99 -999 -999 -999 -99.9 -99.9 -999.9 -9.9 -9.999 -99.9 -99.99 -9.99
2019/12/07 17:18 EST    4.29 -99.99 -999 -999 -999 -99.9 -99.9 -999.9 -9.9 -9.999 -99.9 -99.99 -9.99
2019/12/07 17:24 EST    4.26 -99.99 -999 -999 -999 -99.9 -99.9 -999.9 -9.9 -9.999 -99.9 -99.99 -9.99
2019/12/07 17:30 EST    4.22 -99.99 -999 -999 -999 -99.9 -99.9 -999.9 -9.9 -9.999 -99.9 -99.99 -9.99
2019/12/07 17:36 EST    4.18 -99.99 -999 -999 -999 -99.9 -99.9 -999.9 -9.9 -9.999 -99.9 -99.99 -9.99
2019/12/07 17:42 EST    4.14 -99.99 -999 -999 -999 -99.9 -99.9 -999.9 -9.9 -9.999 -99.9 -99.99 -9.99
2019/12/07 17:48 EST    4.09 -99.99 -999 -999 -999 -99.9 -99.9 -999.9 -9.9 -9.999 -99.9 -99.99 -9.99
2019/12/07 17:54 EST    4.03 -99.99 -999 -999 -999 -99.9 -99.9 -999.9 -9.9 -9.999 -99.9 -99.99 -9.99
2019/12/07 18:00 EST    3.97 -99.99 -999 -999 -999 -99.9 -99.9 -999.9 -9.9 -9.999 -99.9 -99.99 -9.99
2019/12/07 18:06 EST    3.91 -99.99 -999 -999 -999 -99.9 -99.9 -999.9 -9.9 -9.999 -99.9 -99.99 -9.99
2019/12/07 18:12 EST    3.84 -99.99 -999 -999 -999 -99.9 -99.9 -999.9 -9.9 -9.999 -99.9 -99.99 -9.99
2019/12/07 18:18 EST    3.77 -99.99 -999 -999 -999 -99.9 -99.9 -999.9 -9.9 -9.999 -99.9 -99.99 -9.99
2019/12/07 18:24 EST    3.69 -99.99 -999 -999 -999 -99.9 -99.9 -999.9 -9.9 -9.999 -99.9 -99.99 -9.99
2019/12/07 18:30 EST    3.61 -99.99 -999 -999 -999 -99.9 -99.9 -999.9 -9.9 -9.999 -99.9 -99.99 -9.99
2019/12/07 18:36 EST    3.52 -99.99 -999 -999 -999 -99.9 -99.9 -999.9 -9.9 -9.999 -99.9 -99.99 -9.99
2019/12/07 18:42 EST    3.43 -99.99 -999 -999 -999 -99.9 -99.9 -999.9 -9.9 -9.999 -99.9 -99.99 -9.99
2019/12/07 18:48 EST    3.34 -99.99 -999 -999 -999 -99.9 -99.9 -999.9 -9.9 -9.999 -99.9 -99.99 -9.99
2019/12/07 18:54 EST    3.25 -99.99 -999 -999 -999 -99.9 -99.9 -999.9 -9.9 -9.999 -99.9 -99.99 -9.99
2019/12/07 19:00 EST    3.15 -99.99 -999 -999 -999 -99.9 -99.9 -999.9 -9.9 -9.999 -99.9 -99.99 -9.99
2019/12/07 19:06 EST    3.05 -99.99 -999 -999 -999 -99.9 -99.9 -999.9 -9.9 -9.999 -99.9 -99.99 -9.99
2019/12/07 19:12 EST    2.96 -99.99 -999 -999 -999 -99.9 -99.9 -999.9 -9.9 -9.999 -99.9 -99.99 -9.99
2019/12/07 19:18 EST    2.86 -99.99 -999 -999 -999 -99.9 -99.9 -999.9 -9.9 -9.999 -99.9 -99.99 -9.99
2019/12/07 19:24 EST    2.76 -99.99 -999 -999 -999 -99.9 -99.9 -999.9 -9.9 -9.999 -99.9 -99.99 -9.99
2019/12/07 19:30 EST    2.66 -99.99 -999 -999 -999 -99.9 -99.9 -999.9 -9.9 -9.999 -99.9 -99.99 -9.99
2019/12/07 19:36 EST    2.56 -99.99 -999 -999 -999 -99.9 -99.9 -999.9 -9.9 -9.999 -99.9 -99.99 -9.99
2019/12/07 19:42 EST    2.46 -99.99 -999 -999 -999 -99.9 -99.9 -999.9 -9.9 -9.999 -99.9 -99.99 -9.99
2019/12/07 19:48 EST    2.36 -99.99 -999 -999 -999 -99.9 -99.9 -999.9 -9.9 -9.999 -99.9 -99.99 -9.99
2019/12/07 19:54 EST    2.26 -99.99 -999 -999 -999 -99.9 -99.9 -999.9 -9.9 -9.999 -99.9 -99.99 -9.99
2019/12/07 20:00 EST    2.17 -99.99 -999 -999 -999 -99.9 -99.9 -999.9 -9.9 -9.999 -99.9 -99.99 -9.99
2019/12/07 20:06 EST    2.07 -99.99 -999 -999 -999 -99.9 -99.9 -999.9 -9.9 -9.999 -99.9 -99.99 -9.99
2019/12/07 20:12 EST    1.98 -99.99 -999 -999 -999 -99.9 -99.9 -999.9 -9.9 -9.999 -99.9 -99.99 -9.99
2019/12/07 20:18 EST    1.89 -99.99 -999 -999 -999 -99.9 -99.9 -999.9 -9.9 -9.999 -99.9 -99.99 -9.99
2019/12/07 20:24 EST    1.80 -99.99 -999 -999 -999 -99.9 -99.9 -999.9 -9.9 -9.999 -99.9 -99.99 -9.99
2019/12/07 20:30 EST    1.71 -99.99 -999 -999 -999 -99.9 -99.9 -999.9 -9.9 -9.999 -99.9 -99.99 -9.99
2019/12/07 20:36 EST    1.63 -99.99 -999 -999 -999 -99.9 -99.9 -999.9 -9.9 -9.999 -99.9 -99.99 -9.99
2019/12/07 20:42 EST    1.54 -99.99 -999 -999 -999 -99.9 -99.9 -999.9 -9.9 -9.999 -99.9 -99.99 -9.99
2019/12/07 20:48 EST    1.46 -99.99 -999 -999 -999 -99.9 -99.9 -999.9 -9.9 -9.999 -99.9 -99.99 -9.99
2019/12/07 20:54 EST    1.38 -99.99 -999 -999 -999 -99.9 -99.9 -999.9 -9.9 -9.999 -99.9 -99.99 -9.99
2019/12/07 21:00 EST    1.30 -99.99 -999 -999 -999 -99.9 -99.9 -999.9 -9.9 -9.999 -99.9 -99.99 -9.99
2019/12/07 21:06 EST    1.23 -99.99 -999 -999 -999 -99.9 -99.9 -999.9 -9.9 -9.999 -99.9 -99.99 -9.99